createdAt,value
2017-10-22T00:00:37.460Z,75.60
2017-10-22T00:03:05.712Z,75.10
2017-10-22T00:05:33.183Z,75.20
2017-10-22T00:08:00.696Z,74.80
2017-10-22T00:10:28.955Z,74.80
2017-10-22T00:12:56.891Z,74.80
2017-10-22T00:15:24.367Z,75.20
2017-10-22T00:17:52.595Z,74.50
2017-10-22T00:20:20.473Z,74.60
2017-10-22T00:22:48.694Z,74.50
2017-10-22T00:25:16.177Z,74.40
2017-10-22T00:27:43.813Z,74.30
2017-10-22T00:30:11.313Z,73.30
2017-10-22T00:32:39.556Z,73.20
2017-10-22T00:35:07.388Z,73.10
2017-10-22T00:37:34.867Z,73.50
2017-10-22T00:40:02.317Z,74.40
2017-10-22T00:42:29.983Z,72.80
2017-10-22T00:44:57.504Z,73.00
2017-10-22T00:47:25.004Z,73.40
2017-10-22T00:49:52.585Z,73.60
2017-10-22T00:52:20.056Z,73.90
2017-10-22T00:54:47.531Z,73.50
2017-10-22T00:57:15.460Z,73.70
2017-10-22T00:59:42.931Z,73.40
2017-10-22T01:02:10.420Z,73.70
2017-10-22T01:04:37.986Z,73.90
2017-10-22T01:07:05.465Z,73.70
2017-10-22T01:09:32.931Z,74.00
2017-10-22T01:12:00.853Z,73.30
2017-10-22T01:14:28.385Z,73.90
2017-10-22T01:16:55.858Z,73.80
2017-10-22T01:19:24.171Z,73.50
2017-10-22T01:21:51.635Z,73.50
2017-10-22T01:24:19.886Z,73.70
2017-10-22T01:26:47.434Z,73.60
2017-10-22T01:29:14.894Z,73.90
2017-10-22T01:31:43.130Z,74.00
2017-10-22T01:34:11.034Z,73.90
2017-10-22T01:36:38.506Z,74.40
2017-10-22T01:39:05.980Z,74.20
2017-10-22T01:41:33.562Z,74.30
2017-10-22T01:44:01.027Z,73.40
2017-10-22T01:46:29.285Z,74.50
2017-10-22T01:48:57.202Z,74.60
2017-10-22T01:51:24.663Z,74.80
2017-10-22T01:53:52.132Z,74.00
2017-10-22T01:56:20.439Z,74.20
2017-10-22T01:58:47.995Z,74.40
2017-10-22T02:01:16.225Z,75.80
2017-10-22T02:03:43.775Z,75.70
2017-10-22T02:06:11.245Z,76.10
2017-10-22T02:08:38.780Z,75.50
2017-10-22T02:11:06.344Z,74.90
2017-10-22T02:13:33.797Z,75.10
2017-10-22T02:16:01.280Z,74.80
2017-10-22T02:18:28.850Z,75.10
2017-10-22T02:20:57.080Z,74.50
2017-10-22T02:23:24.565Z,74.50
2017-10-22T02:25:52.142Z,75.00
2017-10-22T02:28:19.655Z,75.10
2017-10-22T02:30:47.141Z,74.70
2017-10-22T02:33:14.696Z,74.20
2017-10-22T02:35:42.183Z,74.00
2017-10-22T02:38:09.648Z,73.80
2017-10-22T02:40:37.204Z,74.40
2017-10-22T02:43:05.433Z,74.10
2017-10-22T02:45:33.673Z,74.20
2017-10-22T02:48:01.205Z,74.20
2017-10-22T02:50:29.441Z,74.00
2017-10-22T02:52:56.974Z,74.00
2017-10-22T02:55:25.251Z,73.80
2017-10-22T02:57:52.814Z,73.80
2017-10-22T03:00:20.295Z,73.70
2017-10-22T03:02:47.790Z,73.90
2017-10-22T03:05:15.362Z,73.80
2017-10-22T03:07:42.836Z,74.00
2017-10-22T03:10:10.299Z,74.10
2017-10-22T03:12:37.859Z,73.70
2017-10-22T03:15:06.108Z,72.40
2017-10-22T03:17:33.623Z,72.50
2017-10-22T03:20:02.706Z,73.40
2017-10-22T03:22:30.176Z,73.40
2017-10-22T03:24:58.427Z,73.60
2017-10-22T03:27:25.947Z,73.50
2017-10-22T03:29:53.442Z,73.70
2017-10-22T03:32:20.964Z,74.40
2017-10-22T03:34:48.515Z,74.20
2017-10-22T03:37:16.026Z,73.40
2017-10-22T03:39:43.499Z,73.40
2017-10-22T03:42:11.414Z,74.10
2017-10-22T03:44:40.388Z,73.40
2017-10-22T03:47:07.847Z,73.40
2017-10-22T03:49:35.428Z,73.60
2017-10-22T03:52:03.756Z,73.30
2017-10-22T03:54:31.237Z,73.20
2017-10-22T03:56:59.482Z,73.70
2017-10-22T03:59:27.073Z,73.60
2017-10-22T04:01:54.539Z,74.00
2017-10-22T04:04:22.030Z,73.40
2017-10-22T04:06:49.587Z,73.50
2017-10-22T04:09:17.064Z,73.60
2017-10-22T04:11:44.525Z,73.10
2017-10-22T04:14:12.075Z,73.30
2017-10-22T04:16:40.324Z,72.10
2017-10-22T04:19:07.800Z,72.10
2017-10-22T04:21:35.397Z,73.00
2017-10-22T04:24:02.871Z,73.20
2017-10-22T04:26:30.396Z,73.80
2017-10-22T04:28:57.952Z,73.80
2017-10-22T04:31:25.438Z,72.70
2017-10-22T04:33:52.929Z,73.40
2017-10-22T04:36:20.498Z,74.00
2017-10-22T04:38:47.983Z,73.60
2017-10-22T04:41:15.455Z,74.10
2017-10-22T04:43:43.373Z,74.60
2017-10-22T04:46:10.851Z,74.00
2017-10-22T04:48:38.321Z,74.40
2017-10-22T04:51:06.808Z,74.70
2017-10-22T04:53:34.262Z,74.60
2017-10-22T04:56:02.508Z,75.20
2017-10-22T04:58:30.133Z,75.20
2017-10-22T05:00:57.612Z,75.70
2017-10-22T05:03:25.097Z,75.30
2017-10-22T05:05:52.609Z,75.30
2017-10-22T05:08:20.832Z,75.10
2017-10-22T05:10:48.424Z,74.90
2017-10-22T05:13:16.677Z,76.00
2017-10-22T05:15:44.921Z,74.90
2017-10-22T05:18:12.490Z,74.90
2017-10-22T05:20:40.706Z,73.90
2017-10-22T05:23:08.189Z,73.90
2017-10-22T05:25:35.797Z,74.10
2017-10-22T05:28:03.438Z,74.00
2017-10-22T05:30:30.915Z,74.10
2017-10-22T05:32:58.508Z,73.80
2017-10-22T05:35:26.089Z,73.80
2017-10-22T05:37:54.317Z,73.60
2017-10-22T05:40:22.256Z,73.60
2017-10-22T05:42:49.728Z,73.10
2017-10-22T05:45:17.283Z,73.40
2017-10-22T05:47:45.600Z,73.40
2017-10-22T05:50:13.072Z,73.40
2017-10-22T05:52:41.311Z,73.30
2017-10-22T05:55:08.885Z,73.40
2017-10-22T05:57:36.479Z,73.70
2017-10-22T06:00:04.010Z,73.90
2017-10-22T06:02:31.565Z,73.40
2017-10-22T06:04:59.032Z,73.80
2017-10-22T06:07:26.569Z,73.60
2017-10-22T06:09:54.890Z,73.00
2017-10-22T06:12:23.136Z,72.80
2017-10-22T06:14:51.384Z,73.00
2017-10-22T06:17:20.119Z,71.90
2017-10-22T06:19:47.680Z,71.90
2017-10-22T06:22:15.901Z,72.40
2017-10-22T06:24:43.436Z,72.20
2017-10-22T06:27:10.896Z,72.40
2017-10-22T06:29:38.837Z,72.70
2017-10-22T06:32:06.319Z,73.00
2017-10-22T06:34:33.797Z,72.40
2017-10-22T06:37:01.352Z,72.80
2017-10-22T06:39:28.960Z,73.10
2017-10-22T06:41:56.424Z,72.60
2017-10-22T06:44:24.763Z,73.00
2017-10-22T06:46:52.226Z,73.00
2017-10-22T06:49:19.715Z,72.70
2017-10-22T06:51:47.745Z,72.30
2017-10-22T06:54:15.978Z,71.80
2017-10-22T06:56:43.462Z,71.80
2017-10-22T06:59:11.384Z,72.00
2017-10-22T07:01:38.890Z,71.50
2017-10-22T07:04:06.394Z,71.50
2017-10-22T07:06:34.769Z,70.70
2017-10-22T07:09:02.232Z,70.70
2017-10-22T07:11:29.770Z,71.20
2017-10-22T07:13:57.363Z,71.10
2017-10-22T07:16:24.834Z,70.50
2017-10-22T07:18:53.067Z,70.40
2017-10-22T07:21:21.828Z,69.60
2017-10-22T07:23:50.296Z,69.70
2017-10-22T07:26:18.514Z,68.80
2017-10-22T07:28:46.046Z,68.70
2017-10-22T07:31:14.398Z,67.30
2017-10-22T07:33:41.912Z,67.30
2017-10-22T07:36:09.499Z,66.80
2017-10-22T07:38:38.664Z,66.60
2017-10-22T07:41:06.138Z,66.40
2017-10-22T07:43:33.734Z,65.60
2017-10-22T07:46:01.303Z,65.60
2017-10-22T07:48:28.838Z,65.30
2017-10-22T07:50:56.402Z,64.50
2017-10-22T07:53:23.878Z,64.70
2017-10-22T07:55:51.345Z,65.00
2017-10-22T07:58:18.934Z,64.10
2017-10-22T08:00:46.400Z,63.40
2017-10-22T08:03:14.646Z,63.60
2017-10-22T08:05:42.311Z,63.60
2017-10-22T08:08:09.766Z,63.60
2017-10-22T08:10:38.006Z,63.30
2017-10-22T08:13:05.558Z,63.30
2017-10-22T08:15:33.135Z,63.10
2017-10-22T08:18:01.363Z,62.20
2017-10-22T08:20:28.878Z,62.30
2017-10-22T08:22:56.558Z,62.90
2017-10-22T08:25:24.039Z,64.00
2017-10-22T08:27:51.509Z,63.20
2017-10-22T08:30:19.071Z,62.90
2017-10-22T08:32:46.543Z,62.30
2017-10-22T08:35:13.999Z,62.40
2017-10-22T08:37:41.555Z,62.60
2017-10-22T08:40:09.098Z,62.00
2017-10-22T08:42:37.363Z,62.20
2017-10-22T08:45:04.928Z,62.20
2017-10-22T08:47:32.395Z,61.30
2017-10-22T08:49:59.874Z,61.80
2017-10-22T08:52:27.386Z,61.00
2017-10-22T08:54:54.967Z,61.80
2017-10-22T08:57:23.359Z,61.80
2017-10-22T08:59:51.634Z,61.80
2017-10-22T09:02:19.183Z,61.70
2017-10-22T09:04:47.895Z,61.00
2017-10-22T09:07:15.380Z,61.20
2017-10-22T09:09:42.856Z,60.70
2017-10-22T09:12:10.402Z,60.90
2017-10-22T09:14:37.955Z,60.60
2017-10-22T09:17:05.658Z,60.30
2017-10-22T09:19:33.995Z,59.50
2017-10-22T09:22:01.484Z,59.50
2017-10-22T09:24:29.737Z,59.50
2017-10-22T09:26:57.301Z,59.40
2017-10-22T09:29:24.789Z,59.70
2017-10-22T09:31:53.067Z,59.20
2017-10-22T09:34:21.027Z,59.20
2017-10-22T09:36:49.267Z,59.10
2017-10-22T09:39:16.752Z,59.00
2017-10-22T09:41:45.078Z,58.60
2017-10-22T09:44:12.564Z,58.50
2017-10-22T09:46:40.030Z,57.80
2017-10-22T09:49:07.686Z,57.70
2017-10-22T09:51:35.222Z,57.80
2017-10-22T09:54:02.910Z,57.80
2017-10-22T09:56:31.634Z,57.10
2017-10-22T09:58:59.143Z,57.10
2017-10-22T10:01:26.680Z,56.50
2017-10-22T10:03:54.308Z,55.60
2017-10-22T10:06:21.783Z,56.00
2017-10-22T10:08:51.218Z,55.40
2017-10-22T10:11:18.881Z,54.40
2017-10-22T10:13:46.385Z,53.30
2017-10-22T10:16:13.871Z,51.50
2017-10-22T10:18:41.475Z,50.70
2017-10-22T10:21:09.781Z,49.70
2017-10-22T10:23:38.103Z,50.50
2017-10-22T10:26:05.671Z,50.50
2017-10-22T10:28:33.162Z,50.80
2017-10-22T10:31:00.662Z,50.90
2017-10-22T10:33:29.282Z,51.00
2017-10-22T10:35:58.524Z,50.70
2017-10-22T10:38:26.405Z,50.70
2017-10-22T10:40:54.327Z,50.00
2017-10-22T10:43:21.977Z,49.70
2017-10-22T10:45:50.264Z,49.40
2017-10-22T10:48:17.903Z,49.30
2017-10-22T10:50:46.371Z,46.90
2017-10-22T10:53:13.907Z,46.90
2017-10-22T10:55:41.504Z,46.60
2017-10-22T10:58:09.140Z,45.70
2017-10-22T11:00:37.575Z,44.20
2017-10-22T11:03:05.245Z,44.20
2017-10-22T11:05:32.852Z,44.10
2017-10-22T11:08:01.235Z,44.70
2017-10-22T11:10:29.652Z,44.90
2017-10-22T11:12:57.254Z,44.90
2017-10-22T11:15:24.749Z,45.60
2017-10-22T11:17:52.281Z,46.50
2017-10-22T11:20:20.966Z,45.60
2017-10-22T11:22:48.535Z,45.60
2017-10-22T11:25:16.824Z,45.70
2017-10-22T11:27:44.437Z,45.00
2017-10-22T11:30:11.951Z,46.80
2017-10-22T11:32:39.536Z,46.10
2017-10-22T11:35:07.128Z,45.30
2017-10-22T11:37:35.355Z,46.50
2017-10-22T11:40:02.871Z,46.60
2017-10-22T11:42:31.295Z,47.00
2017-10-22T11:44:59.882Z,47.00
2017-10-22T11:47:27.418Z,47.30
2017-10-22T11:49:54.904Z,47.40
2017-10-22T11:52:22.606Z,47.10
2017-10-22T11:54:50.930Z,47.40
2017-10-22T11:57:18.534Z,47.30
2017-10-22T11:59:46.076Z,46.50
2017-10-22T12:02:15.624Z,46.50
2017-10-22T12:04:43.120Z,46.10
2017-10-22T12:07:15.839Z,46.10
2017-10-22T12:09:44.155Z,46.40
2017-10-22T12:12:11.779Z,46.40
2017-10-22T12:14:40.059Z,45.60
2017-10-22T12:17:08.302Z,44.90
2017-10-22T12:19:35.936Z,44.80
2017-10-22T12:22:03.450Z,44.70
2017-10-22T12:24:31.705Z,44.10
2017-10-22T12:26:59.218Z,44.10
2017-10-22T12:29:26.763Z,44.50
2017-10-22T12:31:54.284Z,44.40
2017-10-22T12:34:22.556Z,44.10
2017-10-22T12:36:50.109Z,44.10
2017-10-22T12:39:17.585Z,44.60
2017-10-22T12:41:45.151Z,44.40
2017-10-22T12:44:13.566Z,45.10
2017-10-22T12:46:41.134Z,45.10
2017-10-22T12:49:08.596Z,45.10
2017-10-22T12:51:36.354Z,45.10
2017-10-22T12:54:03.849Z,45.80
2017-10-22T12:56:32.208Z,46.10
2017-10-22T12:58:59.763Z,46.00
2017-10-22T13:01:27.300Z,45.90
2017-10-22T13:03:54.831Z,45.60
2017-10-22T13:06:22.379Z,46.20
2017-10-22T13:08:49.845Z,45.80
2017-10-22T13:11:17.332Z,46.30
2017-10-22T13:13:44.944Z,47.00
2017-10-22T13:16:13.211Z,47.50
2017-10-22T13:18:40.744Z,47.50
2017-10-22T13:21:08.425Z,47.60
2017-10-22T13:23:36.692Z,47.10
2017-10-22T13:26:04.660Z,47.10
2017-10-22T13:28:32.647Z,46.90
2017-10-22T13:31:00.896Z,46.90
2017-10-22T13:33:28.359Z,46.80
2017-10-22T13:35:55.921Z,47.00
2017-10-22T13:38:24.355Z,46.20
2017-10-22T13:40:51.855Z,45.50
2017-10-22T13:43:19.503Z,45.50
2017-10-22T13:45:47.054Z,45.70
2017-10-22T13:48:14.595Z,45.70
2017-10-22T13:50:42.327Z,45.60
2017-10-22T13:53:09.853Z,45.60
2017-10-22T13:55:38.115Z,46.10
2017-10-22T13:58:05.643Z,46.20
2017-10-22T14:00:33.157Z,46.20
2017-10-22T14:03:00.735Z,45.70
2017-10-22T14:05:28.633Z,45.60
2017-10-22T14:07:57.016Z,45.20
2017-10-22T14:10:24.492Z,45.20
2017-10-22T14:12:52.012Z,44.70
2017-10-22T14:15:19.551Z,45.40
2017-10-22T14:17:48.096Z,45.20
2017-10-22T14:20:16.511Z,45.50
2017-10-22T14:22:44.004Z,45.50
2017-10-22T14:25:11.506Z,45.70
2017-10-22T14:27:39.018Z,46.00
2017-10-22T14:30:06.527Z,45.90
2017-10-22T14:32:34.073Z,46.00
2017-10-22T14:35:02.595Z,45.40
2017-10-22T14:37:30.505Z,45.40
2017-10-22T14:39:59.243Z,46.20
2017-10-22T14:42:26.756Z,46.10
2017-10-22T14:44:54.994Z,46.40
2017-10-22T14:47:22.496Z,46.30
2017-10-22T14:49:49.998Z,46.40
2017-10-22T14:52:17.456Z,46.60
2017-10-22T14:54:45.104Z,46.60
2017-10-22T14:57:12.738Z,48.00
2017-10-22T14:59:41.050Z,51.10
2017-10-22T15:02:08.537Z,51.10
2017-10-22T15:04:36.229Z,50.30
2017-10-22T15:07:05.104Z,49.30
2017-10-22T15:09:32.836Z,49.40
2017-10-22T15:12:00.849Z,49.50
2017-10-22T15:14:28.370Z,49.70
2017-10-22T15:16:55.842Z,49.40
2017-10-22T15:19:24.162Z,49.00
2017-10-22T15:21:51.701Z,49.00
2017-10-22T15:24:19.250Z,49.40
2017-10-22T15:26:47.536Z,49.60
2017-10-22T15:29:15.021Z,49.60
2017-10-22T15:31:42.594Z,50.00
2017-10-22T15:34:10.108Z,50.10
2017-10-22T15:36:37.567Z,50.40
2017-10-22T15:39:05.244Z,50.50
2017-10-22T15:41:32.776Z,51.10
2017-10-22T15:44:00.307Z,51.40
2017-10-22T15:46:28.698Z,52.70
2017-10-22T15:48:56.942Z,52.80
2017-10-22T15:51:24.429Z,52.80
2017-10-22T15:53:52.795Z,53.40
2017-10-22T15:56:21.077Z,53.00
2017-10-22T15:58:49.323Z,53.10
2017-10-22T16:01:16.795Z,53.10
2017-10-22T16:03:44.715Z,53.40
2017-10-22T16:06:12.229Z,53.60
2017-10-22T16:08:40.473Z,54.80
2017-10-22T16:11:07.984Z,54.80
2017-10-22T16:13:35.458Z,54.10
2017-10-22T16:16:03.053Z,54.20
2017-10-22T16:18:30.591Z,54.40
2017-10-22T16:20:58.083Z,54.50
2017-10-22T16:23:25.541Z,55.20
2017-10-22T16:25:53.014Z,54.80
2017-10-22T16:28:21.252Z,54.90
2017-10-22T16:30:48.771Z,54.90
2017-10-22T16:33:16.264Z,54.90
2017-10-22T16:35:43.802Z,55.30
2017-10-22T16:38:11.297Z,54.80
2017-10-22T16:40:39.800Z,54.80
2017-10-22T16:43:08.077Z,55.20
2017-10-22T16:45:36.434Z,55.80
2017-10-22T16:48:04.682Z,55.80
2017-10-22T16:50:32.159Z,55.80
2017-10-22T16:52:59.660Z,56.00
2017-10-22T16:55:27.168Z,56.30
2017-10-22T16:57:55.740Z,56.60
2017-10-22T17:00:23.202Z,56.70
2017-10-22T17:02:50.697Z,56.50
2017-10-22T17:05:18.186Z,56.60
2017-10-22T17:07:45.793Z,57.00
2017-10-22T17:10:13.357Z,57.10
2017-10-22T17:12:41.610Z,57.90
2017-10-22T17:15:09.212Z,57.40
2017-10-22T17:17:36.693Z,57.20
2017-10-22T17:20:04.159Z,57.10
2017-10-22T17:22:31.691Z,57.40
2017-10-22T17:24:59.154Z,57.50
2017-10-22T17:27:26.679Z,57.60
2017-10-22T17:29:55.038Z,58.00
2017-10-22T17:32:24.371Z,58.10
2017-10-22T17:34:51.944Z,58.10
2017-10-22T17:37:19.571Z,58.00
2017-10-22T17:39:47.870Z,58.50
2017-10-22T17:42:16.270Z,58.40
2017-10-22T17:44:43.946Z,58.20
2017-10-22T17:47:11.554Z,57.70
2017-10-22T17:49:39.035Z,57.50
2017-10-22T17:52:06.503Z,57.90
2017-10-22T17:54:34.017Z,57.30
2017-10-22T17:57:02.281Z,57.30
2017-10-22T17:59:29.822Z,57.20
2017-10-22T18:01:57.323Z,57.90
2017-10-22T18:04:25.097Z,58.60
2017-10-22T18:06:52.603Z,58.70
2017-10-22T18:09:20.082Z,60.80
2017-10-22T18:11:48.501Z,63.60
2017-10-22T18:14:15.964Z,63.50
2017-10-22T18:16:43.592Z,64.50
2017-10-22T18:19:11.156Z,66.50
2017-10-22T18:21:38.638Z,68.60
2017-10-22T18:24:06.163Z,68.40
2017-10-22T18:26:35.548Z,68.90
2017-10-22T18:29:04.125Z,70.40
2017-10-22T18:31:32.414Z,70.60
2017-10-22T18:34:00.681Z,70.60
2017-10-22T18:36:28.905Z,70.60
2017-10-22T18:38:56.385Z,70.60
2017-10-22T18:41:23.948Z,70.60
2017-10-22T18:43:51.438Z,70.50
2017-10-22T18:46:18.932Z,71.00
2017-10-22T18:48:46.404Z,71.20
2017-10-22T18:51:14.652Z,71.40
2017-10-22T18:53:42.247Z,71.40
2017-10-22T18:56:09.730Z,71.70
2017-10-22T18:58:37.967Z,71.80
2017-10-22T19:01:05.426Z,71.80
2017-10-22T19:03:32.973Z,71.70
2017-10-22T19:06:00.453Z,71.70
2017-10-22T19:08:27.952Z,71.80
2017-10-22T19:10:56.159Z,71.10
2017-10-22T19:13:23.835Z,71.10
2017-10-22T19:15:51.308Z,71.60
2017-10-22T19:18:19.815Z,71.50
2017-10-22T19:20:47.331Z,71.50
2017-10-22T19:23:14.818Z,72.00
2017-10-22T19:25:43.072Z,73.10
2017-10-22T19:28:11.483Z,72.60
2017-10-22T19:30:39.002Z,72.60
2017-10-22T19:33:06.536Z,73.20
2017-10-22T19:35:34.892Z,73.80
2017-10-22T19:38:02.382Z,73.80
2017-10-22T19:40:29.848Z,74.30
2017-10-22T19:42:57.428Z,73.90
2017-10-22T19:45:24.918Z,74.40
2017-10-22T19:47:52.386Z,74.90
2017-10-22T19:50:19.898Z,74.70
2017-10-22T19:52:48.240Z,75.10
2017-10-22T19:55:16.969Z,75.00
2017-10-22T19:57:45.699Z,74.60
2017-10-22T20:00:13.179Z,74.30
2017-10-22T20:02:40.807Z,74.90
2017-10-22T20:05:10.482Z,73.80
2017-10-22T20:07:38.297Z,73.50
2017-10-22T20:10:06.823Z,74.00
2017-10-22T20:12:34.749Z,74.00
2017-10-22T20:15:02.745Z,74.10
2017-10-22T20:17:30.331Z,74.20
2017-10-22T20:19:57.958Z,74.00
2017-10-22T20:22:27.125Z,73.90
2017-10-22T20:24:54.786Z,73.90
2017-10-22T20:27:22.307Z,73.50
2017-10-22T20:29:50.170Z,73.90
2017-10-22T20:32:17.965Z,73.80
2017-10-22T20:34:46.360Z,74.00
2017-10-22T20:37:14.626Z,74.00
2017-10-22T20:39:42.163Z,73.90
2017-10-22T20:42:09.770Z,73.40
2017-10-22T20:44:38.008Z,73.00
2017-10-22T20:47:05.465Z,73.00
2017-10-22T20:49:32.937Z,72.80
2017-10-22T20:52:00.506Z,73.10
2017-10-22T20:54:27.986Z,73.80
2017-10-22T20:56:56.210Z,73.60
2017-10-22T20:59:23.807Z,73.60
2017-10-22T21:01:51.264Z,73.50
2017-10-22T21:04:18.814Z,74.10
2017-10-22T21:06:46.476Z,73.20
2017-10-22T21:09:13.938Z,73.00
2017-10-22T21:11:41.400Z,73.00
2017-10-22T21:14:08.882Z,73.00
2017-10-22T21:16:36.404Z,73.20
2017-10-22T21:19:03.935Z,72.90
2017-10-22T21:21:31.838Z,72.90
2017-10-22T21:23:59.304Z,73.80
2017-10-22T21:26:26.774Z,73.70
2017-10-22T21:28:55.015Z,73.30
2017-10-22T21:31:22.491Z,73.30
2017-10-22T21:33:49.984Z,73.00
2017-10-22T21:36:17.465Z,72.90
2017-10-22T21:38:45.027Z,73.00
2017-10-22T21:41:12.522Z,72.70
2017-10-22T21:43:39.996Z,72.00
2017-10-22T21:46:07.478Z,72.10
2017-10-22T21:48:34.921Z,72.20
2017-10-22T21:51:03.228Z,72.50
2017-10-22T21:53:31.528Z,72.60
2017-10-22T21:55:59.023Z,72.50
2017-10-22T21:58:26.477Z,72.40
2017-10-22T22:00:53.939Z,73.10
2017-10-22T22:03:21.442Z,72.50
2017-10-22T22:05:48.933Z,71.90
2017-10-22T22:08:16.520Z,71.50
2017-10-22T22:10:44.768Z,72.00
2017-10-22T22:13:12.229Z,71.90
2017-10-22T22:15:39.682Z,72.00
2017-10-22T22:18:07.142Z,72.00
2017-10-22T22:20:34.639Z,72.10
2017-10-22T22:23:02.100Z,71.90
2017-10-22T22:25:29.600Z,72.30
2017-10-22T22:27:57.839Z,72.90
2017-10-22T22:30:25.417Z,72.90
2017-10-22T22:32:52.910Z,72.90
2017-10-22T22:35:20.427Z,73.10
2017-10-22T22:37:49.025Z,72.80
2017-10-22T22:40:16.490Z,73.00
2017-10-22T22:42:44.744Z,72.80
2017-10-22T22:45:12.213Z,72.80
2017-10-22T22:50:31.550Z,72.00
2017-10-22T22:59:17.860Z,73.90
2017-10-22T23:01:45.357Z,74.50
2017-10-22T23:04:40.468Z,73.80
2017-10-22T23:07:14.421Z,73.70
2017-10-22T23:09:41.918Z,73.40
2017-10-22T23:12:09.473Z,73.40
2017-10-22T23:14:37.709Z,73.70
2017-10-22T23:17:05.182Z,73.50
2017-10-22T23:19:32.653Z,73.00
2017-10-22T23:22:00.101Z,74.10
2017-10-22T23:24:27.578Z,73.00
2017-10-22T23:26:56.574Z,72.90
2017-10-22T23:29:24.065Z,72.80
2017-10-22T23:31:52.305Z,72.80
2017-10-22T23:34:19.769Z,72.80
2017-10-22T23:36:48.822Z,71.60
2017-10-22T23:39:17.045Z,71.70
2017-10-22T23:41:44.508Z,71.60
2017-10-22T23:44:11.988Z,71.40
2017-10-22T23:46:40.223Z,71.70
2017-10-22T23:49:07.701Z,71.70
2017-10-22T23:51:35.169Z,72.00
